Time;durP1;ratioP1;P1;durP2;ratioP2;P2;SDS_P1;SDS_P2;PMS_P1;PMS_P2;Temp;Humidity;BMP_temperature;BMP_pressure;BME280_temperature;BME280_humidity;BME280_pressure;Samples;Min_cycle;Max_cycle;Signal;HPM_P1;HPM_P2
2021/12/28 09:34:03;;;;;;;1.02;1.02;;;;;;;15.82;62.33;99039.69;4570985;27;15960400;-88
2021/12/28 09:36:29;;;;;;;1.70;1.60;;;;;;;14.04;64.37;99040.16;5130168;28;20039;-89
2021/12/28 09:39:10;;;;;;;1.50;1.40;;;;;;;12.87;67.33;99039.72;5130357;28;20027;-88
2021/12/28 09:41:35;;;;;;;1.90;1.73;;;;;;;12.10;70.50;99044.56;5132102;27;20020;-89
2021/12/28 09:44:18;;;;;;;2.40;1.80;;;;;;;11.37;72.91;99033.31;5131722;28;20028;-89
2021/12/28 09:46:43;;;;;;;1.58;1.50;;;;;;;10.84;71.32;99027.09;5131498;28;20098;-89
2021/12/28 09:49:16;;;;;;;1.70;1.60;;;;;;;10.40;72.42;99023.00;5131687;28;20547;-90
2021/12/28 09:51:41;;;;;;;1.90;1.80;;;;;;;10.14;74.83;99024.06;5131738;27;20073;-89
2021/12/28 09:54:07;;;;;;;3.53;2.00;;;;;;;9.84;75.21;99030.50;5131617;28;20019;-89
2021/12/28 09:56:46;;;;;;;2.30;2.10;;;;;;;9.60;77.67;99019.38;5131447;28;20026;-89
2021/12/28 09:59:12;;;;;;;2.30;2.10;;;;;;;9.43;78.40;99015.75;5132344;27;20019;-88
2021/12/28 10:01:59;;;;;;;4.43;2.20;;;;;;;9.40;77.82;99007.25;5152134;27;20052;-90
2021/12/28 10:04:26;;;;;;;3.58;2.60;;;;;;;9.26;81.45;99003.47;5152732;27;20075;-89
2021/12/28 10:07:30;;;;;;;2.50;2.30;;;;;;;9.17;80.08;98997.78;5151918;27;20045;-89
2021/12/28 10:09:56;;;;;;;2.35;2.20;;;;;;;9.16;82.33;99003.88;5151989;27;20034;-90
2021/12/28 10:12:53;;;;;;;2.17;1.92;;;;;;;9.09;80.95;99001.53;5152192;27;20042;-89
2021/12/28 10:15:22;;;;;;;2.58;2.30;;;;;;;9.15;79.85;98997.00;5150823;27;20511;-89
2021/12/28 10:18:10;;;;;;;3.42;2.30;;;;;;;9.05;79.86;99002.53;5152371;27;20026;-89
2021/12/28 10:20:57;;;;;;;2.47;2.20;;;;;;;9.05;80.32;98986.19;5152549;27;20524;-90
2021/12/28 10:23:38;;;;;;;2.30;2.10;;;;;;;9.08;80.51;98986.03;5152071;27;20023;-91
2021/12/28 10:26:07;;;;;;;2.88;2.20;;;;;;;9.04;83.73;98967.22;5151805;27;20019;-90
2021/12/28 10:28:45;;;;;;;2.30;2.10;;;;;;;9.04;80.32;98967.22;5152049;27;20026;-89
2021/12/28 10:31:19;;;;;;;2.20;2.03;;;;;;;9.05;81.88;98966.31;5152276;27;20023;-91
2021/12/28 10:33:44;;;;;;;2.28;2.10;;;;;;;9.04;80.78;98956.03;5151679;27;20071;-90
2021/12/28 10:36:31;;;;;;;2.47;2.10;;;;;;;9.05;79.97;98939.59;5153931;27;20026;-90
2021/12/28 10:39:10;;;;;;;2.13;2.00;;;;;;;9.10;81.11;98954.06;5154036;27;20072;-90
2021/12/28 10:41:58;;;;;;;2.35;2.15;;;;;;;9.15;84.32;98945.25;5151594;27;20583;-90
2021/12/28 10:44:26;;;;;;;2.00;1.80;;;;;;;9.17;81.81;98943.44;5139429;27;20034;-90
2021/12/28 10:46:52;;;;;;;1.80;1.70;;;;;;;9.19;81.72;98947.66;5137974;27;20032;-90
2021/12/28 10:50:01;;;;;;;1.97;1.77;;;;;;;9.17;83.42;98939.13;5138136;27;20039;-91
2021/12/28 10:52:33;;;;;;;1.60;1.50;;;;;;;9.18;83.69;98927.00;5054478;28;20049;-90
2021/12/28 10:55:27;;;;;;;2.03;1.70;;;;;;;9.22;83.65;98949.28;5048951;28;20065;-90
2021/12/28 10:57:57;;;;;;;1.70;1.60;;;;;;;9.22;82.18;98936.34;5054345;28;20029;-90
2021/12/28 11:00:44;;;;;;;1.70;1.60;;;;;;;9.18;84.94;98927.84;5054530;28;20033;-90
2021/12/28 11:03:38;;;;;;;1.77;1.58;;;;;;;9.18;81.45;98925.25;5054517;28;20041;-91
2021/12/28 11:06:31;;;;;;;1.60;1.50;;;;;;;9.19;81.77;98929.53;5039160;28;20473;-90
2021/12/28 11:09:31;;;;;;;2.03;1.50;;;;;;;9.12;82.95;98918.56;5083705;27;20555;-92
2021/12/28 11:12:08;;;;;;;1.60;1.50;;;;;;;9.17;82.33;98909.78;5133157;27;20114;-91
2021/12/28 11:14:33;;;;;;;1.50;1.40;;;;;;;9.16;84.52;98919.31;5138217;27;20031;-92
2021/12/28 11:17:03;;;;;;;1.80;1.70;;;;;;;9.14;83.34;98910.78;5137381;27;20027;-93
2021/12/28 11:19:36;;;;;;;2.22;1.63;;;;;;;9.10;84.11;98894.53;5137957;27;20022;-92
2021/12/28 11:22:11;;;;;;;1.45;1.35;;;;;;;9.12;83.87;98909.97;5138332;27;20023;-90
2021/12/28 11:25:02;;;;;;;1.40;1.30;;;;;;;9.10;85.32;98904.03;5123055;27;20028;-90
2021/12/28 11:27:30;;;;;;;1.80;1.67;;;;;;;9.06;85.05;98894.72;5134278;27;20280;-90
2021/12/28 11:30:14;;;;;;;1.50;1.40;;;;;;;9.12;84.42;98897.03;5126128;27;20485;-90
2021/12/28 11:33:12;;;;;;;1.52;1.42;;;;;;;9.13;85.84;98896.16;5136009;27;20106;-90
2021/12/28 11:35:47;;;;;;;2.78;1.70;;;;;;;9.10;85.23;98884.19;5093544;28;20032;-90
2021/12/28 11:38:15;;;;;;;1.65;1.50;;;;;;;9.11;84.39;98885.88;5100096;27;20049;-89
2021/12/28 11:40:47;;;;;;;1.70;1.60;;;;;;;9.12;84.35;98874.59;5135570;27;20020;-89
2021/12/28 11:43:17;;;;;;;1.73;1.63;;;;;;;9.10;85.22;98871.25;5134941;27;20031;-90
2021/12/28 11:45:52;;;;;;;2.10;1.60;;;;;;;9.14;87.47;98879.72;5115283;28;20031;-89
2021/12/28 11:48:18;;;;;;;1.25;1.10;;;;;;;9.10;86.52;98876.41;5115747;28;20038;-91
2021/12/28 11:50:44;;;;;;;2.20;1.20;;;;;;;9.26;84.92;98879.22;5126124;27;20016;-92
2021/12/28 11:53:14;;;;;;;3.40;1.23;;;;;;;9.14;86.60;98882.31;5136279;27;20070;-90
2021/12/28 11:55:47;;;;;;;1.63;1.15;;;;;;;9.09;86.71;98897.16;5131911;27;20495;-91
2021/12/28 11:58:12;;;;;;;2.90;1.27;;;;;;;9.07;86.33;98894.66;5136744;27;20027;-91
2021/12/28 12:00:40;;;;;;;2.87;1.50;;;;;;;9.01;86.30;98905.22;5136926;27;20056;-90
2021/12/28 12:03:36;;;;;;;2.92;1.30;;;;;;;9.00;85.82;98900.97;5136454;27;20035;-89
2021/12/28 12:06:14;;;;;;;8.43;1.77;;;;;;;8.92;86.00;98890.06;5135928;27;20038;-89
2021/12/28 12:09:07;;;;;;;5.32;1.60;;;;;;;8.86;86.72;98892.91;5135866;27;20046;-89
2021/12/28 12:11:33;;;;;;;7.63;1.85;;;;;;;8.81;86.06;98893.09;5136280;27;20072;-89
2021/12/28 12:13:58;;;;;;;7.57;1.80;;;;;;;8.80;86.70;98896.59;5135382;27;20031;-89
2021/12/28 12:16:23;;;;;;;7.33;2.07;;;;;;;8.76;86.93;98892.44;5135885;27;20079;-89
2021/12/28 12:18:49;;;;;;;7.37;2.13;;;;;;;8.71;86.99;98884.03;5136313;27;20023;-96
2021/12/28 12:21:32;;;;;;;12.43;2.40;;;;;;;8.68;86.54;98894.47;5134926;27;20015;-88
2021/12/28 12:23:58;;;;;;;5.93;2.30;;;;;;;8.60;86.42;98885.28;5135557;27;20058;-87
2021/12/28 12:26:33;;;;;;;6.03;2.10;;;;;;;8.64;87.37;98891.16;5135613;27;20019;-90
2021/12/28 12:29:00;;;;;;;16.53;3.00;;;;;;;8.75;86.28;98898.50;5135058;27;20490;-89
2021/12/28 12:31:35;;;;;;;12.43;2.70;;;;;;;8.67;86.79;98906.56;5135592;27;20102;-89
2021/12/28 12:34:03;;;;;;;13.82;3.28;;;;;;;8.65;85.86;98895.44;5114864;28;20394;-89
2021/12/28 12:36:41;;;;;;;12.50;2.72;;;;;;;8.67;85.95;98901.38;5114441;28;20015;-88
2021/12/28 12:39:08;;;;;;;11.90;2.90;;;;;;;8.71;85.64;98902.94;5115038;28;20035;-89
2021/12/28 12:41:39;;;;;;;9.18;2.42;;;;;;;8.76;86.56;98901.03;5114787;28;20096;-89
2021/12/28 12:44:25;;;;;;;14.18;3.45;;;;;;;8.74;85.57;98891.63;5114913;28;20054;-89
2021/12/28 12:46:52;;;;;;;7.07;2.13;;;;;;;8.80;85.61;98901.75;5113760;28;20046;-88
2021/12/28 12:49:39;;;;;;;13.55;2.72;;;;;;;8.81;85.11;98904.28;5112499;28;20506;-87
2021/12/28 12:52:13;;;;;;;15.23;3.00;;;;;;;8.90;84.88;98903.09;5114369;28;20046;-87
2021/12/28 12:54:46;;;;;;;13.30;3.40;;;;;;;8.95;84.80;98906.31;5113439;28;20023;-87
2021/12/28 12:57:30;;;;;;;13.88;2.67;;;;;;;9.02;83.88;98903.50;5113036;28;20024;-88
2021/12/28 13:00:20;;;;;;;12.52;2.42;;;;;;;8.99;83.59;98907.06;5113385;28;20241;-83
2021/12/28 13:02:58;;;;;;;14.13;2.80;;;;;;;8.96;83.24;98900.22;5112909;28;20024;-84
2021/12/28 13:05:24;;;;;;;17.05;3.10;;;;;;;8.93;83.24;98902.09;5113452;28;20107;-85
2021/12/28 13:07:51;;;;;;;14.13;2.83;;;;;;;8.92;82.26;98897.84;5113435;28;20094;-85
2021/12/28 13:10:28;;;;;;;12.15;2.67;;;;;;;8.93;82.60;98907.28;5112811;28;20022;-85
2021/12/28 13:12:55;;;;;;;20.73;3.97;;;;;;;8.98;81.18;98901.94;5113273;28;20035;-85
2021/12/28 13:15:26;;;;;;;16.17;3.28;;;;;;;8.99;81.27;98906.19;5113008;28;20027;-85
2021/12/28 13:17:52;;;;;;;14.10;3.00;;;;;;;8.98;81.77;98902.78;5111378;28;20035;-85
2021/12/28 13:20:28;;;;;;;16.30;3.37;;;;;;;8.99;81.40;98898.44;5113528;28;20081;-83
2021/12/28 13:23:03;;;;;;;15.63;3.85;;;;;;;8.98;81.28;98902.78;5108694;28;20360;-85
2021/12/28 13:25:36;;;;;;;13.82;2.83;;;;;;;8.98;81.08;98907.09;5107037;28;20027;-84
2021/12/28 13:28:05;;;;;;;11.57;2.55;;;;;;;8.98;80.96;98899.34;5111129;28;20024;-86
2021/12/28 13:30:34;;;;;;;16.33;3.90;;;;;;;9.00;79.72;98895.81;5107279;28;20027;-85
2021/12/28 13:32:59;;;;;;;13.88;2.67;;;;;;;9.00;80.13;98910.47;5133212;27;20398;-84
2021/12/28 13:35:31;;;;;;;11.40;2.60;;;;;;;8.98;79.94;98907.97;5127077;28;20034;-84
2021/12/28 13:38:03;;;;;;;14.52;2.92;;;;;;;8.99;79.72;98912.22;5112310;28;20103;-84
2021/12/28 13:40:31;;;;;;;16.85;3.42;;;;;;;8.99;78.88;98914.81;5113265;28;20031;-84
2021/12/28 13:42:59;;;;;;;15.63;2.88;;;;;;;9.05;77.30;98930.09;5112975;28;20019;-84
2021/12/28 13:45:30;;;;;;;13.55;2.58;;;;;;;9.03;77.85;98938.81;5112402;28;20100;-84
2021/12/28 13:47:58;;;;;;;12.82;2.83;;;;;;;8.98;77.36;98928.66;5122249;28;20367;-85
2021/12/28 13:50:23;;;;;;;10.02;2.17;;;;;;;8.91;77.30;98922.03;5133591;28;20378;-85
2021/12/28 13:52:55;;;;;;;11.77;2.83;;;;;;;8.84;77.31;98929.19;5132239;28;20118;-84
2021/12/28 13:55:25;;;;;;;12.02;2.53;;;;;;;8.78;77.46;98937.19;5133529;28;20019;-84
2021/12/28 13:58:02;;;;;;;13.15;3.00;;;;;;;8.65;76.41;98916.13;5133020;28;20035;-86
2021/12/28 14:00:31;;;;;;;11.45;2.25;;;;;;;8.70;77.10;98940.06;5132755;28;20072;-85
2021/12/28 14:02:58;;;;;;;10.77;2.63;;;;;;;8.70;76.94;98919.38;5118298;28;20395;-86
2021/12/28 14:05:24;;;;;;;10.55;2.33;;;;;;;8.69;76.74;98920.28;5118930;28;20031;-85
2021/12/28 14:07:50;;;;;;;8.85;2.15;;;;;;;8.67;77.81;98919.47;5123732;28;20028;-86
2021/12/28 14:10:35;;;;;;;8.68;1.83;;;;;;;8.67;77.36;98922.06;5112256;28;20019;-86
2021/12/28 14:13:25;;;;;;;7.80;2.03;;;;;;;8.59;78.08;98930.13;5111781;28;20031;-86
2021/12/28 14:15:54;;;;;;;8.30;2.10;;;;;;;8.56;77.66;98938.00;5112680;28;20112;-82
2021/12/28 14:18:46;;;;;;;7.30;1.90;;;;;;;8.48;77.85;98922.78;5113950;28;20015;-85
2021/12/28 14:21:18;;;;;;;4.53;1.90;;;;;;;8.44;77.68;98931.53;5115409;28;20434;-84
2021/12/28 14:23:50;;;;;;;7.43;2.17;;;;;;;8.38;77.48;98934.31;5095783;28;20030;-85
2021/12/28 14:26:19;;;;;;;10.95;1.98;;;;;;;8.34;77.93;98936.19;5112240;27;20055;-85
2021/12/28 14:28:55;;;;;;;10.02;1.90;;;;;;;8.26;78.14;98938.22;5135976;27;20463;-85
2021/12/28 14:31:23;;;;;;;5.25;1.75;;;;;;;8.25;78.03;98935.66;5137102;27;20035;-84
2021/12/28 14:33:59;;;;;;;6.07;1.42;;;;;;;8.21;78.37;98949.63;5155429;27;20047;-79
2021/12/28 14:36:39;;;;;;;6.80;2.17;;;;;;;8.15;79.02;98941.19;5157500;27;20025;-85
2021/12/28 14:39:10;;;;;;;8.43;1.92;;;;;;;8.12;78.43;98938.69;5139059;27;20035;-85
2021/12/28 14:41:40;;;;;;;10.43;1.90;;;;;;;8.12;78.58;98941.28;5136079;27;20110;-84
2021/12/28 14:44:16;;;;;;;6.20;1.95;;;;;;;8.15;78.05;98940.34;5136397;27;20023;-84
2021/12/28 14:46:42;;;;;;;5.70;1.77;;;;;;;8.12;78.08;98943.84;5135778;27;20050;-84
2021/12/28 14:49:15;;;;;;;4.40;1.40;;;;;;;8.00;79.58;98941.72;5116805;27;20059;-84
2021/12/28 14:51:43;;;;;;;3.90;1.50;;;;;;;7.92;79.94;98941.16;5115459;28;20030;-85
2021/12/28 14:54:11;;;;;;;2.90;1.05;;;;;;;7.87;79.32;98946.47;5115787;28;20026;-84
2021/12/28 14:56:38;;;;;;;4.10;1.40;;;;;;;7.82;79.16;98943.22;5115342;28;20076;-84
2021/12/28 14:59:19;;;;;;;4.07;1.30;;;;;;;7.76;79.62;98944.28;5115888;28;20026;-84
2021/12/28 15:01:48;;;;;;;5.70;1.55;;;;;;;7.74;79.57;98943.47;5111045;28;20039;-84
2021/12/28 15:04:13;;;;;;;3.03;1.33;;;;;;;7.68;80.21;98957.44;5115827;28;20372;-85
2021/12/28 15:07:00;;;;;;;5.70;1.60;;;;;;;7.65;80.03;98951.53;5115730;28;20027;-85
2021/12/28 15:09:35;;;;;;;4.30;1.33;;;;;;;7.61;80.03;98955.09;5115129;28;20023;-85
2021/12/28 15:12:04;;;;;;;3.92;1.42;;;;;;;7.56;80.38;98953.50;5115134;28;20020;-85
2021/12/28 15:14:30;;;;;;;1.50;0.80;;;;;;;7.50;80.84;98948.56;5119859;27;20067;-84
2021/12/28 15:16:55;;;;;;;2.87;0.70;;;;;;;7.49;80.60;98956.34;5135402;27;20027;-84
2021/12/28 15:19:30;;;;;;;1.60;0.90;;;;;;;7.46;80.42;98957.28;5136178;27;20045;-85
2021/12/28 15:21:57;;;;;;;2.25;0.77;;;;;;;7.45;80.87;98957.34;5135948;27;20098;-85
2021/12/28 15:24:22;;;;;;;;;;;;;;;7.44;80.98;98960.84;5135011;27;20061;-84
2021/12/28 15:26:48;;;;;;;2.37;0.93;;;;;;;7.40;80.68;98965.25;5135021;27;20244;-85
2021/12/28 15:29:14;;;;;;;0.85;0.70;;;;;;;7.38;81.40;98961.88;5135688;27;20096;-85
2021/12/28 15:31:39;;;;;;;3.47;1.00;;;;;;;7.35;81.47;98962.81;5134530;27;20453;-85
2021/12/28 15:34:20;;;;;;;1.53;0.70;;;;;;;7.31;81.74;98968.13;5135998;27;20032;-85
2021/12/28 15:36:53;;;;;;;0.90;0.80;;;;;;;7.22;82.25;98956.38;5135637;27;20023;-85
2021/12/28 15:39:19;;;;;;;0.73;0.68;;;;;;;7.26;82.25;98966.53;5136007;27;20352;-85
2021/12/28 15:41:48;;;;;;;1.35;0.90;;;;;;;7.24;82.91;98972.66;5135627;27;20022;-85
2021/12/28 15:44:13;;;;;;;2.17;1.17;;;;;;;7.21;82.41;98965.81;5135086;27;20035;-86
2021/12/28 15:46:40;;;;;;;0.80;0.80;;;;;;;7.20;82.49;98971.91;5134241;27;20444;-85
2021/12/28 15:49:08;;;;;;;1.73;0.70;;;;;;;7.20;81.98;98971.03;5133795;27;20031;-85
2021/12/28 15:51:35;;;;;;;0.57;0.45;;;;;;;7.15;82.23;98963.44;5132745;27;20027;-85
2021/12/28 15:54:00;;;;;;;;;;;;;;;7.19;81.84;98975.38;5132521;27;20387;-86
2021/12/28 15:56:25;;;;;;;0.40;0.40;;;;;;;7.20;81.45;98981.38;5133701;27;19915;-85
2021/12/28 15:58:50;;;;;;;0.70;0.60;;;;;;;7.19;82.45;98980.53;5132229;27;20498;-85
2021/12/28 16:01:17;;;;;;;0.93;0.90;;;;;;;7.17;82.92;98979.72;5134472;27;20106;-89
2021/12/28 16:03:47;;;;;;;0.85;0.75;;;;;;;7.17;82.19;98984.03;5134949;27;20552;-85
2021/12/28 16:06:15;;;;;;;1.02;0.60;;;;;;;7.15;82.13;98986.66;5134493;27;20357;-86
2021/12/28 16:08:43;;;;;;;1.88;1.00;;;;;;;7.15;82.16;98991.00;5134412;27;20023;-85
2021/12/28 16:11:08;;;;;;;0.93;0.60;;;;;;;7.15;82.16;98989.25;5126920;27;20047;-86
2021/12/28 16:13:33;;;;;;;0.70;0.70;;;;;;;7.14;81.93;98990.13;5134437;27;20090;-86
2021/12/28 16:16:11;;;;;;;0.90;0.57;;;;;;;7.15;82.81;98991.81;5134664;27;20352;-86
2021/12/28 16:18:37;;;;;;;0.80;0.60;;;;;;;7.16;82.56;98996.09;5135058;27;20437;-85
2021/12/28 16:21:03;;;;;;;2.00;0.80;;;;;;;7.17;82.62;99000.38;5134088;27;20031;-86
2021/12/28 16:23:30;;;;;;;3.42;1.13;;;;;;;7.18;83.76;98999.47;5134110;27;20028;-85
2021/12/28 16:25:56;;;;;;;1.60;1.15;;;;;;;7.18;83.08;99008.94;5134312;27;20054;-86
2021/12/28 16:28:21;;;;;;;1.60;1.00;;;;;;;7.17;84.23;99008.09;5134054;27;20058;-86
2021/12/28 16:30:55;;;;;;;1.80;1.30;;;;;;;7.13;83.73;99009.09;5134260;27;20075;-85
2021/12/28 16:33:21;;;;;;;4.13;1.42;;;;;;;7.15;84.62;99022.78;5113274;28;20522;-86
2021/12/28 16:35:46;;;;;;;2.67;1.33;;;;;;;7.14;84.70;99023.69;5113883;28;20032;-86
2021/12/28 16:38:12;;;;;;;3.28;1.73;;;;;;;7.13;84.24;99027.13;5113983;28;20027;-86
2021/12/28 16:40:37;;;;;;;2.97;1.63;;;;;;;7.13;85.50;99039.22;5113020;28;20039;-86
2021/12/28 16:43:12;;;;;;;1.48;1.30;;;;;;;7.11;85.54;99041.81;5113486;28;20061;-86
2021/12/28 16:45:38;;;;;;;3.28;1.73;;;;;;;7.13;84.71;99036.63;5131771;27;20054;-86
2021/12/28 16:48:05;;;;;;;2.58;1.55;;;;;;;7.12;84.90;99043.50;5133882;27;20382;-86
2021/12/28 16:50:32;;;;;;;2.88;1.50;;;;;;;7.12;85.21;99053.81;5134622;27;20099;-86
2021/12/28 16:52:58;;;;;;;2.53;1.58;;;;;;;7.12;84.90;99056.41;5133596;27;20475;-86
2021/12/28 16:55:36;;;;;;;1.50;1.40;;;;;;;7.11;85.84;99057.28;5133240;27;20034;-86
2021/12/28 16:58:02;;;;;;;1.85;1.70;;;;;;;7.14;85.54;99064.13;5133819;27;20015;-85
2021/12/28 17:00:27;;;;;;;3.20;1.80;;;;;;;7.15;86.46;99056.31;5134224;27;20655;-85
2021/12/28 17:02:53;;;;;;;3.60;1.80;;;;;;;7.14;86.62;99070.09;5133445;27;20019;-86
2021/12/28 17:05:19;;;;;;;2.75;1.60;;;;;;;7.12;85.73;99066.72;5134444;27;20019;-86
2021/12/28 17:07:53;;;;;;;2.50;1.50;;;;;;;7.13;86.11;99063.25;5133388;27;20031;-86
2021/12/28 17:10:18;;;;;;;2.70;1.73;;;;;;;7.17;86.15;99076.91;5133396;27;20019;-87
2021/12/28 17:12:47;;;;;;;3.60;1.90;;;;;;;7.15;87.16;99081.28;5133804;27;20031;-87
2021/12/28 17:15:12;;;;;;;2.47;1.50;;;;;;;7.11;87.29;99073.63;5133987;27;20031;-86
2021/12/28 17:17:38;;;;;;;3.57;1.63;;;;;;;7.16;87.07;99094.13;5133562;27;20024;-86
2021/12/28 17:20:04;;;;;;;2.97;1.67;;;;;;;7.16;88.31;99085.53;5133979;27;20032;-86
2021/12/28 17:22:30;;;;;;;2.90;1.57;;;;;;;7.17;87.93;99097.53;5132333;27;20428;-86
2021/12/28 17:25:09;;;;;;;1.87;1.20;;;;;;;7.17;87.38;99100.13;5132944;27;20027;-86
2021/12/28 17:27:35;;;;;;;3.63;1.70;;;;;;;7.17;87.60;99101.00;5133797;27;20114;-85
2021/12/28 17:30:00;;;;;;;4.10;1.73;;;;;;;7.19;88.53;99109.53;5133082;27;20109;-86
2021/12/28 17:32:26;;;;;;;1.63;1.40;;;;;;;7.22;88.22;99112.00;5133679;28;20143;-85
2021/12/28 17:34:53;;;;;;;1.57;1.47;;;;;;;7.22;88.36;99101.69;5133918;28;20050;-86
2021/12/28 17:37:19;;;;;;;5.28;1.98;;;;;;;7.25;89.06;99113.66;5132617;28;20110;-86
2021/12/28 17:39:44;;;;;;;3.87;1.90;;;;;;;7.27;88.23;99111.88;5133240;28;20122;-86
2021/12/28 17:42:12;;;;;;;6.75;2.28;;;;;;;7.30;88.75;99121.28;5134393;28;20030;-86
2021/12/28 17:44:46;;;;;;;4.10;2.13;;;;;;;7.30;89.00;99110.94;5132882;28;20106;-85
2021/12/28 17:47:12;;;;;;;7.22;1.80;;;;;;;7.32;88.10;99116.91;5133867;28;20096;-85
2021/12/28 17:49:37;;;;;;;4.90;2.00;;;;;;;7.37;88.43;99127.94;5132862;28;20027;-85
2021/12/28 17:52:03;;;;;;;6.70;2.47;;;;;;;7.37;88.52;99135.69;5131835;27;20122;-86
2021/12/28 17:54:28;;;;;;;7.80;2.20;;;;;;;7.44;87.62;99138.94;5136262;27;20068;-85
2021/12/28 17:56:55;;;;;;;6.57;2.40;;;;;;;7.42;88.88;99146.72;5137737;27;20502;-85
2021/12/28 17:59:20;;;;;;;8.95;2.33;;;;;;;7.42;88.69;99141.56;5137197;27;20023;-85
2021/12/28 18:01:45;;;;;;;6.43;2.10;;;;;;;7.45;89.04;99151.78;5137456;27;20095;-85
2021/12/28 18:04:11;;;;;;;5.95;2.30;;;;;;;7.45;88.49;99158.69;5137526;27;20558;-85
2021/12/28 18:06:37;;;;;;;6.80;2.27;;;;;;;7.48;87.89;99166.34;5135371;27;20052;-85
2021/12/28 18:09:03;;;;;;;7.47;2.40;;;;;;;7.49;88.56;99173.16;5137050;27;20058;-85
2021/12/28 18:11:29;;;;;;;8.55;2.63;;;;;;;7.49;88.64;99179.19;5137438;27;20063;-85
2021/12/28 18:13:54;;;;;;;4.87;2.20;;;;;;;7.53;88.94;99182.53;5136678;27;20027;-85
2021/12/28 18:16:19;;;;;;;4.00;2.10;;;;;;;7.50;88.72;99177.44;5136784;27;20023;-85
2021/12/28 18:18:57;;;;;;;3.90;2.05;;;;;;;7.50;89.34;99193.81;5136294;27;20019;-85
2021/12/28 18:21:22;;;;;;;5.22;2.25;;;;;;;7.50;89.75;99192.94;5137237;27;20027;-85
2021/12/28 18:23:48;;;;;;;6.03;2.53;;;;;;;7.54;89.57;99197.13;5137251;27;20023;-85
2021/12/28 18:26:13;;;;;;;7.03;2.80;;;;;;;7.50;89.19;99204.13;5136382;27;20420;-85
2021/12/28 18:28:40;;;;;;;4.28;2.40;;;;;;;7.55;88.82;99220.31;5137003;27;20023;-84
2021/12/28 18:31:05;;;;;;;6.18;2.40;;;;;;;7.55;88.74;99217.72;5117873;27;20058;-85
2021/12/28 18:33:32;;;;;;;5.03;2.72;;;;;;;7.55;89.79;99234.97;5135918;27;20416;-86
2021/12/28 18:35:59;;;;;;;8.20;2.70;;;;;;;7.58;89.32;99237.47;5136678;27;20050;-85
2021/12/28 18:38:29;;;;;;;7.03;3.00;;;;;;;7.57;89.40;99244.34;5132233;27;20035;-85
2021/12/28 18:40:56;;;;;;;7.70;2.80;;;;;;;7.57;89.52;99248.69;5134100;27;20025;-85
2021/12/28 18:43:21;;;;;;;7.45;2.90;;;;;;;7.56;89.39;99257.31;5135938;27;20110;-85
2021/12/28 18:45:47;;;;;;;6.50;3.10;;;;;;;7.58;89.70;99269.28;5129585;27;20126;-85
2021/12/28 18:48:15;;;;;;;6.73;3.03;;;;;;;7.58;90.28;99274.44;5134449;27;20446;-85
2021/12/28 18:50:43;;;;;;;5.57;2.55;;;;;;;7.56;89.14;99276.22;5136315;27;20366;-85
2021/12/28 18:53:13;;;;;;;7.75;2.78;;;;;;;7.59;88.87;99283.06;5136387;27;20023;-86
2021/12/28 18:55:52;;;;;;;6.03;3.40;;;;;;;7.58;90.30;99277.03;5118049;27;20024;-85
2021/12/28 18:58:20;;;;;;;9.23;3.08;;;;;;;7.60;90.70;99287.31;5129476;27;20095;-86
2021/12/28 19:00:47;;;;;;;8.40;3.15;;;;;;;7.55;90.16;99284.84;5135584;27;20027;-85
2021/12/28 19:03:14;;;;;;;7.78;3.20;;;;;;;7.61;90.61;99290.75;5135031;27;20031;-86
2021/12/28 19:05:39;;;;;;;4.90;2.60;;;;;;;7.62;90.39;99295.03;5117756;27;20425;-85
2021/12/28 19:08:04;;;;;;;6.90;3.07;;;;;;;7.63;90.52;99309.63;5130236;27;20023;-86
2021/12/28 19:10:30;;;;;;;5.57;2.93;;;;;;;7.62;90.33;99318.25;5135822;27;20016;-86
2021/12/28 19:12:55;;;;;;;6.43;2.88;;;;;;;7.61;90.40;99311.41;5135585;27;20113;-86
2021/12/28 19:15:22;;;;;;;6.63;2.70;;;;;;;7.67;90.12;99321.53;5135399;27;20019;-86
2021/12/28 19:17:49;;;;;;;6.05;3.30;;;;;;;7.65;90.22;99329.34;5135511;27;20106;-86
2021/12/28 19:20:15;;;;;;;;;;;;;;;7.69;90.89;99332.69;5136866;27;20027;-86
2021/12/28 19:22:40;;;;;;;7.27;3.57;;;;;;;7.66;91.54;99341.38;5135364;27;20468;-87
2021/12/28 19:25:15;;;;;;;7.22;3.55;;;;;;;7.64;91.77;99342.31;5135630;27;20027;-86
2021/12/28 19:27:40;;;;;;;7.75;3.90;;;;;;;7.71;91.53;99352.41;5135870;27;20023;-85
2021/12/28 19:30:09;;;;;;;5.53;3.80;;;;;;;7.73;91.59;99366.13;5135256;27;20074;-86
2021/12/28 19:32:35;;;;;;;9.10;4.22;;;;;;;7.77;91.14;99363.47;5135011;27;20043;-86
2021/12/28 19:35:02;;;;;;;10.23;4.43;;;;;;;7.78;91.62;99373.75;5135696;27;20041;-86
2021/12/28 19:37:28;;;;;;;11.38;5.25;;;;;;;7.80;91.59;99378.91;5135034;27;20081;-86
2021/12/28 19:40:04;;;;;;;11.83;5.10;;;;;;;7.81;91.63;99384.00;5134612;27;20066;-86
2021/12/28 19:42:30;;;;;;;10.50;5.22;;;;;;;7.77;91.87;99387.53;5135763;27;20090;-86
2021/12/28 19:44:55;;;;;;;10.67;5.03;;;;;;;7.81;91.29;99399.50;5134929;27;20539;-86
2021/12/28 19:47:22;;;;;;;13.00;5.53;;;;;;;7.83;91.73;99422.69;5135313;27;20027;-86
2021/12/28 19:49:48;;;;;;;;;;;;;;;7.86;91.70;99430.38;5135721;27;20015;-86
2021/12/28 19:52:14;;;;;;;13.68;5.68;;;;;;;7.85;91.76;99436.41;5134126;27;20278;-86
2021/12/28 19:54:40;;;;;;;17.27;6.88;;;;;;;7.86;91.56;99445.88;5135315;27;20026;-85
2021/12/28 19:57:07;;;;;;;16.95;6.18;;;;;;;7.86;91.42;99461.38;5134645;27;20435;-85
2021/12/28 19:59:33;;;;;;;16.65;6.35;;;;;;;7.87;91.25;99453.59;5129436;27;20020;-86
2021/12/28 20:01:59;;;;;;;14.00;5.57;;;;;;;7.89;91.11;99466.47;5132968;27;20437;-85
2021/12/28 20:04:24;;;;;;;14.33;5.93;;;;;;;7.89;91.33;99467.28;5134224;27;20730;-86
2021/12/28 20:06:50;;;;;;;11.10;5.10;;;;;;;7.90;91.14;99478.50;5134711;27;20019;-86
2021/12/28 20:09:18;;;;;;;10.67;4.57;;;;;;;7.90;91.10;99488.81;5134213;27;20027;-86
2021/12/28 20:11:43;;;;;;;13.95;4.60;;;;;;;7.89;91.14;99490.53;5132570;27;20425;-86
2021/12/28 20:14:11;;;;;;;10.00;4.00;;;;;;;7.92;91.55;99499.97;5134965;27;20031;-86
2021/12/28 20:16:52;;;;;;;8.27;3.60;;;;;;;7.92;91.85;99506.84;5133168;27;20399;-84
2021/12/28 20:19:17;;;;;;;8.30;3.65;;;;;;;7.94;91.16;99515.41;5133926;27;20065;-84
2021/12/28 20:21:43;;;;;;;9.33;3.70;;;;;;;7.86;91.56;99506.16;5134649;27;20023;-85
2021/12/28 20:24:10;;;;;;;9.33;4.10;;;;;;;7.89;91.34;99512.97;5135255;27;20026;-86
2021/12/28 20:26:55;;;;;;;6.10;3.58;;;;;;;7.93;91.36;99524.91;5133639;27;20023;-86
2021/12/28 20:29:20;;;;;;;5.57;3.35;;;;;;;7.87;91.82;99520.75;5134263;27;20038;-86
2021/12/28 20:31:46;;;;;;;4.40;2.70;;;;;;;7.89;91.75;99529.28;5134193;27;20027;-86
2021/12/28 20:34:12;;;;;;;2.77;2.53;;;;;;;7.92;92.12;99537.84;5133965;27;20130;-87
2021/12/28 20:36:50;;;;;;;4.18;2.60;;;;;;;7.91;91.93;99538.75;5134694;27;20027;-86
2021/12/28 20:39:18;;;;;;;3.65;2.80;;;;;;;7.93;92.25;99544.72;5131425;27;20023;-84
2021/12/28 20:41:44;;;;;;;4.25;3.22;;;;;;;7.92;92.43;99554.22;5134479;27;20043;-86
2021/12/28 20:44:09;;;;;;;4.97;3.50;;;;;;;7.92;92.62;99558.53;5134560;27;20058;-86
2021/12/28 20:46:34;;;;;;;5.25;3.53;;;;;;;7.91;92.35;99578.34;5133964;27;20388;-87
2021/12/28 20:49:00;;;;;;;5.80;3.72;;;;;;;7.93;92.50;99580.88;5133917;27;20023;-86
2021/12/28 20:51:28;;;;;;;6.07;3.80;;;;;;;7.95;92.64;99592.03;5134371;27;20031;-86
2021/12/28 20:53:54;;;;;;;7.40;4.40;;;;;;;7.94;92.42;99593.75;5133175;27;20034;-87
2021/12/28 20:56:19;;;;;;;8.07;4.50;;;;;;;7.95;91.88;99604.97;5134681;27;20019;-87
2021/12/28 20:58:45;;;;;;;8.10;4.60;;;;;;;7.96;92.29;99606.66;5132932;27;20023;-86
2021/12/28 21:01:10;;;;;;;8.43;4.80;;;;;;;7.96;92.23;99611.81;5133836;27;20114;-86
2021/12/28 21:03:36;;;;;;;11.00;4.67;;;;;;;7.94;92.27;99608.44;5134457;27;20019;-86
2021/12/28 21:06:10;;;;;;;7.20;4.13;;;;;;;7.98;91.99;99625.56;5133862;27;20023;-86
2021/12/28 21:08:41;;;;;;;8.07;4.57;;;;;;;7.91;92.17;99624.00;5133189;27;20463;-86
2021/12/28 21:11:06;;;;;;;6.55;4.10;;;;;;;7.93;92.21;99635.16;5134192;27;20023;-86
2021/12/28 21:13:32;;;;;;;5.40;3.67;;;;;;;7.95;92.20;99644.56;5133834;27;20019;-87
2021/12/28 21:15:58;;;;;;;5.80;3.40;;;;;;;7.94;91.94;99649.75;5132319;27;20023;-86
2021/12/28 21:18:25;;;;;;;6.53;4.00;;;;;;;7.93;92.50;99651.50;5133840;27;20023;-85
2021/12/28 21:20:52;;;;;;;4.63;3.30;;;;;;;7.92;92.27;99661.84;5133600;27;20024;-87
2021/12/28 21:23:17;;;;;;;5.13;3.88;;;;;;;7.92;92.11;99667.03;5133432;27;20054;-86
2021/12/28 21:25:43;;;;;;;5.40;3.30;;;;;;;7.85;92.01;99669.75;5133311;27;20047;-86
2021/12/28 21:28:21;;;;;;;5.07;3.50;;;;;;;7.86;92.04;99673.19;5133900;27;20073;-86
2021/12/28 21:30:47;;;;;;;8.25;3.90;;;;;;;7.86;92.48;99692.13;5132773;27;20024;-85